Time;durP1;ratioP1;P1;durP2;ratioP2;P2;SDS_P1;SDS_P2;PMS_P1;PMS_P2;Temp;Humidity;BMP_temperature;BMP_pressure;BME280_temperature;BME280_humidity;BME280_pressure;Samples;Min_cycle;Max_cycle;Signal;HPM_P1;HPM_P2
2021/04/21 00:01:14;;;;;;;20.03;16.27;;;10.50;1.00;;;;;;5095500;28;20415;-69
2021/04/21 00:03:41;;;;;;;18.60;16.03;;;10.50;1.00;;;;;;5096891;28;20429;-69
2021/04/21 00:06:07;;;;;;;21.73;17.00;;;10.50;1.00;;;;;;5094242;28;20417;-68
2021/04/21 00:08:35;;;;;;;20.17;16.80;;;10.60;1.00;;;;;;5094063;28;20478;-68
2021/04/21 00:11:01;;;;;;;21.17;16.40;;;10.60;1.00;;;;;;5095552;28;20441;-68
2021/04/21 00:13:27;;;;;;;19.33;15.67;;;10.50;1.00;;;;;;5095132;28;20425;-68
2021/04/21 00:15:53;;;;;;;17.77;15.37;;;10.40;1.00;;;;;;5094497;28;20536;-68
2021/04/21 00:18:20;;;;;;;19.73;16.70;;;10.30;1.00;;;;;;5095449;28;20437;-68
2021/04/21 00:20:57;;;;;;;19.70;15.53;;;10.30;1.00;;;;;;5095370;28;20175;-68
2021/04/21 00:23:23;;;;;;;18.17;15.77;;;10.40;1.00;;;;;;5095325;28;20506;-68
2021/04/21 00:25:53;;;;;;;18.77;15.43;;;10.40;1.00;;;;;;5095290;28;20770;-69
2021/04/21 00:28:22;;;;;;;21.10;16.50;;;10.30;1.00;;;;;;5095017;28;20405;-68
2021/04/21 00:30:48;;;;;;;20.03;14.93;;;10.30;1.00;;;;;;5095090;28;20521;-68
2021/04/21 00:33:17;;;;;;;23.27;15.50;;;10.30;1.00;;;;;;5094756;28;20894;-68
2021/04/21 00:35:45;;;;;;;20.80;15.27;;;10.40;1.00;;;;;;5094797;28;20409;-68
2021/04/21 00:38:17;;;;;;;24.23;16.57;;;10.20;1.00;;;;;;5093487;28;20409;-69
2021/04/21 00:40:48;;;;;;;21.97;16.37;;;10.10;1.00;;;;;;5094707;28;20437;-68
2021/04/21 00:43:22;;;;;;;21.80;17.57;;;10.10;1.00;;;;;;5094633;28;20516;-69
2021/04/21 00:45:53;;;;;;;19.67;14.90;;;10.00;1.00;;;;;;5094736;28;20399;-69
2021/04/21 00:48:38;;;;;;;22.90;17.47;;;10.00;1.00;;;;;;5095001;28;20934;-69
2021/04/21 00:51:12;;;;;;;22.10;16.67;;;9.80;1.00;;;;;;5094739;28;20449;-69
2021/04/21 00:53:42;;;;;;;22.13;16.40;;;9.90;1.00;;;;;;5094453;28;20432;-69
2021/04/21 00:56:50;;;;;;;19.70;16.47;;;9.90;1.00;;;;;;5093190;28;20536;-69
2021/04/21 00:59:34;;;;;;;19.77;16.63;;;9.90;1.00;;;;;;5094691;28;20391;-69
2021/04/21 01:02:01;;;;;;;21.77;16.73;;;9.80;1.00;;;;;;5094583;28;20386;-69
2021/04/21 01:04:27;;;;;;;21.63;17.33;;;9.80;1.00;;;;;;5094126;28;20436;-68
2021/04/21 01:06:54;;;;;;;21.10;17.67;;;9.80;1.00;;;;;;5094505;28;20778;-69
2021/04/21 01:09:23;;;;;;;21.40;17.43;;;9.70;1.00;;;;;;5094043;28;20563;-69
2021/04/21 01:11:53;;;;;;;23.03;18.50;;;9.60;1.00;;;;;;5093224;28;20453;-68
2021/04/21 01:14:22;;;;;;;23.20;17.40;;;9.60;1.00;;;;;;5094334;28;20453;-69
2021/04/21 01:16:53;;;;;;;20.63;16.80;;;9.60;1.00;;;;;;5094398;28;20420;-69
2021/04/21 01:19:27;;;;;;;23.17;17.10;;;9.40;1.00;;;;;;5094351;28;20870;-69
2021/04/21 01:21:58;;;;;;;21.47;17.57;;;9.40;1.00;;;;;;5094013;28;20810;-68
2021/04/21 01:24:47;;;;;;;25.30;17.03;;;9.30;1.00;;;;;;5093941;28;20763;-69
2021/04/21 01:27:17;;;;;;;21.40;16.23;;;9.30;1.00;;;;;;5092874;28;20405;-69
2021/04/21 01:29:45;;;;;;;23.77;16.73;;;9.30;5.50;;;;;;5093836;28;20772;-68
2021/04/21 01:32:13;;;;;;;22.93;17.20;;;9.30;1.00;;;;;;5093699;28;20540;-68
2021/04/21 01:34:41;;;;;;;25.70;17.40;;;9.20;1.00;;;;;;5093701;28;20417;-68
2021/04/21 01:37:07;;;;;;;19.97;16.53;;;9.20;1.00;;;;;;5093700;28;20397;-69
2021/04/21 01:39:41;;;;;;;24.00;18.37;;;9.00;24.90;;;;;;5093788;28;20412;-69
2021/04/21 01:42:10;;;;;;;27.83;18.60;;;9.20;36.00;;;;;;5093627;28;20765;-69
2021/04/21 01:44:40;;;;;;;23.10;17.17;;;9.20;2.80;;;;;;5093469;28;20460;-69
2021/04/21 01:47:10;;;;;;;22.03;18.13;;;9.20;1.00;;;;;;5093843;28;20414;-68
2021/04/21 01:49:35;;;;;;;22.67;17.60;;;9.10;5.30;;;;;;5093690;28;20401;-69
2021/04/21 01:52:08;;;;;;;23.43;17.37;;;9.10;59.00;;;;;;5093297;28;20452;-69
2021/04/21 01:54:38;;;;;;;24.43;17.57;;;9.10;23.30;;;;;;5092153;28;20602;-69
2021/04/21 01:57:30;;;;;;;27.40;16.30;;;9.00;30.60;;;;;;5093437;28;20767;-69
2021/04/21 02:00:04;;;;;;;23.50;18.00;;;8.80;46.30;;;;;;5093691;28;20421;-68
2021/04/21 02:02:36;;;;;;;22.07;17.70;;;8.60;99.90;;;;;;5093406;28;20385;-68
2021/04/21 02:05:24;;;;;;;23.07;18.50;;;8.80;99.90;;;;;;5093310;28;20516;-69
2021/04/21 02:08:10;;;;;;;25.40;18.50;;;8.80;99.90;;;;;;5093643;28;20378;-69
2021/04/21 02:10:45;;;;;;;23.93;18.83;;;8.80;99.90;;;;;;5093639;28;20787;-69
2021/04/21 02:13:16;;;;;;;24.13;18.20;;;8.80;65.10;;;;;;5093136;28;20499;-69
2021/04/21 02:16:13;;;;;;;23.90;17.33;;;8.70;97.10;;;;;;5093619;28;20534;-69
2021/04/21 02:18:51;;;;;;;30.70;18.50;;;8.60;99.90;;;;;;5092610;28;20448;-69
2021/04/21 02:21:31;;;;;;;28.00;18.50;;;8.70;99.90;;;;;;5093537;28;20897;-69
2021/04/21 02:24:39;;;;;;;23.10;18.80;;;8.80;99.90;;;;;;5093173;28;20420;-69
2021/04/21 02:27:39;;;;;;;27.37;17.80;;;8.50;90.00;;;;;;5093385;28;20412;-69
2021/04/21 02:30:10;;;;;;;26.30;18.93;;;8.60;99.90;;;;;;5093023;28;20378;-69
2021/04/21 02:32:49;;;;;;;27.00;19.60;;;8.60;77.40;;;;;;5092931;28;20936;-69
2021/04/21 02:35:45;;;;;;;27.10;18.70;;;8.70;47.00;;;;;;5091785;28;20765;-69
2021/04/21 02:38:36;;;;;;;24.33;18.10;;;8.60;21.10;;;;;;5094026;28;20397;-69
2021/04/21 02:41:11;;;;;;;24.47;17.43;;;8.40;88.90;;;;;;5097439;28;20385;-69
2021/04/21 02:43:54;;;;;;;30.90;19.43;;;8.40;98.50;;;;;;5097009;28;20419;-69
2021/04/21 02:46:44;;;;;;;22.80;17.37;;;8.40;91.70;;;;;;5097706;28;20370;-69
2021/04/21 02:49:34;;;;;;;23.03;17.83;;;8.20;99.90;;;;;;5097173;28;20397;-69
2021/04/21 02:52:18;;;;;;;21.23;17.17;;;8.10;99.90;;;;;;5097119;28;20834;-69
2021/04/21 02:55:07;;;;;;;23.17;18.73;;;8.10;99.90;;;;;;5096786;28;20421;-69
2021/04/21 02:57:55;;;;;;;29.03;18.97;;;8.00;99.90;;;;;;5097143;28;20816;-69
2021/04/21 03:00:28;;;;;;;24.00;17.63;;;8.10;99.90;;;;;;5097144;28;20425;-69
2021/04/21 03:03:15;;;;;;;23.40;17.67;;;8.20;99.90;;;;;;5096693;28;20770;-69
2021/04/21 03:05:50;;;;;;;25.17;19.10;;;8.10;99.90;;;;;;5097052;28;20394;-69
2021/04/21 03:08:44;;;;;;;22.43;18.60;;;8.10;99.90;;;;;;5096734;28;20423;-69
2021/04/21 03:11:25;;;;;;;25.43;19.53;;;8.00;99.90;;;;;;5096510;28;20527;-69
2021/04/21 03:14:26;;;;;;;31.57;20.93;;;8.00;99.90;;;;;;5096579;28;20513;-69
2021/04/21 03:16:58;;;;;;;27.58;19.00;;;8.10;99.90;;;;;;5079046;28;20426;-69
2021/04/21 03:19:28;;;;;;;25.77;19.67;;;8.00;99.90;;;;;;5095448;28;20574;-69
2021/04/21 03:22:00;;;;;;;27.73;18.33;;;8.10;99.90;;;;;;5096398;28;20843;-69
2021/04/21 03:24:34;;;;;;;27.23;18.10;;;8.20;99.90;;;;;;5096499;28;20794;-69
2021/04/21 03:27:04;;;;;;;29.50;18.63;;;8.00;99.90;;;;;;5096261;28;20384;-69
2021/04/21 03:29:42;;;;;;;29.90;21.00;;;7.90;99.90;;;;;;5095975;28;20455;-69
2021/04/21 03:32:31;;;;;;;25.33;20.30;;;7.90;99.90;;;;;;5096438;28;20945;-69
2021/04/21 03:34:58;;;;;;;27.17;20.90;;;8.10;99.90;;;;;;5096366;28;20427;-69
2021/04/21 03:37:40;;;;;;;30.77;21.98;;;8.20;99.90;;;;;;5096106;28;20437;-69
2021/04/21 03:40:07;;;;;;;29.10;19.83;;;8.10;99.90;;;;;;5094834;28;20161;-69
2021/04/21 03:42:34;;;;;;;30.70;21.10;;;8.20;99.90;;;;;;5096357;28;20404;-68
2021/04/21 03:45:01;;;;;;;30.63;19.93;;;8.10;99.90;;;;;;5095796;28;20914;-69
2021/04/21 03:47:28;;;;;;;29.70;22.30;;;8.20;99.90;;;;;;5095821;28;20400;-69
2021/04/21 03:49:55;;;;;;;25.40;20.23;;;8.20;99.90;;;;;;5093327;28;20498;-69
2021/04/21 03:52:23;;;;;;;30.33;21.67;;;8.30;99.90;;;;;;5095937;28;20437;-69
2021/04/21 03:54:50;;;;;;;27.53;19.70;;;8.20;99.90;;;;;;5095751;28;20424;-69
2021/04/21 03:57:18;;;;;;;31.43;20.90;;;8.10;99.90;;;;;;5094432;28;20977;-69
2021/04/21 03:59:45;;;;;;;29.27;21.30;;;8.10;99.90;;;;;;5095942;28;20472;-69
2021/04/21 04:02:12;;;;;;;26.17;20.10;;;8.10;99.90;;;;;;5095904;28;20408;-69
2021/04/21 04:04:51;;;;;;;26.27;20.20;;;8.10;99.90;;;;;;5095416;28;20513;-69
2021/04/21 04:07:22;;;;;;;24.83;18.23;;;8.00;99.90;;;;;;5094140;28;20404;-69
2021/04/21 04:09:50;;;;;;;31.30;21.63;;;8.30;99.90;;;;;;5095167;28;20433;-69
2021/04/21 04:12:17;;;;;;;27.27;21.53;;;8.30;99.90;;;;;;5095369;28;20549;-69
2021/04/21 04:14:45;;;;;;;34.73;23.47;;;8.30;99.90;;;;;;5095500;28;20437;-69
2021/04/21 04:17:14;;;;;;;22.83;19.33;;;8.20;99.90;;;;;;5095284;28;20401;-69
2021/04/21 04:19:42;;;;;;;28.60;20.17;;;8.30;99.90;;;;;;5095176;28;20415;-69
2021/04/21 04:22:12;;;;;;;25.70;20.33;;;8.20;99.90;;;;;;5095156;28;20474;-69
2021/04/21 04:24:47;;;;;;;26.80;20.03;;;8.40;99.90;;;;;;5094967;28;20941;-69
2021/04/21 04:27:15;;;;;;;28.73;20.97;;;8.50;99.90;;;;;;5093925;28;20444;-69
2021/04/21 04:29:42;;;;;;;26.20;18.73;;;8.50;99.90;;;;;;5095027;28;20455;-69
2021/04/21 04:32:15;;;;;;;24.57;20.80;;;8.60;99.90;;;;;;5094957;28;20533;-69
2021/04/21 04:34:48;;;;;;;29.70;20.57;;;8.50;99.90;;;;;;5095227;28;20609;-69
2021/04/21 04:37:16;;;;;;;27.80;20.40;;;8.60;99.90;;;;;;5094699;28;20821;-69
2021/04/21 04:39:42;;;;;;;31.63;21.10;;;8.50;99.90;;;;;;5094852;28;20475;-69
2021/04/21 04:42:10;;;;;;;31.67;20.13;;;8.50;99.90;;;;;;5093455;28;20427;-69
2021/04/21 04:44:41;;;;;;;31.47;20.93;;;8.50;99.90;;;;;;5094621;28;20246;-69
2021/04/21 04:47:47;;;;;;;33.23;21.80;;;8.50;99.90;;;;;;5094818;28;20393;-69
2021/04/21 04:50:15;;;;;;;31.93;21.73;;;8.40;99.90;;;;;;5012591;28;20543;-69
2021/04/21 04:52:42;;;;;;;28.77;20.60;;;8.40;99.90;;;;;;5012413;28;20405;-69
2021/04/21 04:55:11;;;;;;;27.33;19.90;;;8.50;99.90;;;;;;5054118;28;20413;-69
2021/04/21 04:57:43;;;;;;;30.27;22.10;;;8.40;99.90;;;;;;5094484;28;20394;-69
2021/04/21 05:00:11;;;;;;;27.67;21.00;;;8.40;99.90;;;;;;5094580;28;20444;-69
2021/04/21 05:02:42;;;;;;;28.93;22.30;;;8.40;99.90;;;;;;5094065;28;20408;-69
2021/04/21 05:05:09;;;;;;;27.03;21.73;;;8.30;99.90;;;;;;5094058;28;20389;-69
2021/04/21 05:07:37;;;;;;;32.13;23.90;;;8.40;99.90;;;;;;5094109;28;20397;-69
2021/04/21 05:10:06;;;;;;;31.13;22.20;;;8.60;99.90;;;;;;5092730;28;20421;-69
2021/04/21 05:12:37;;;;;;;33.13;23.70;;;8.60;99.90;;;;;;5094240;28;20411;-69
2021/04/21 05:15:04;;;;;;;31.20;23.17;;;8.70;99.90;;;;;;5094193;28;20414;-69
2021/04/21 05:17:32;;;;;;;33.00;21.60;;;8.80;99.90;;;;;;5094224;28;20403;-69
2021/04/21 05:20:36;;;;;;;25.70;21.40;;;9.20;84.80;;;;;;5094023;28;20483;-69
2021/04/21 05:23:17;;;;;;;26.83;21.30;;;9.10;46.60;;;;;;5092580;28;20479;-69
2021/04/21 05:26:10;;;;;;;35.90;24.10;;;9.30;11.60;;;;;;5093921;28;20409;-69
2021/04/21 05:29:03;;;;;;;32.03;25.20;;;9.20;1.00;;;;;;5093814;28;20730;-69
2021/04/21 05:31:45;;;;;;;34.23;26.33;;;9.20;1.00;;;;;;5091995;28;20464;-69
2021/04/21 05:34:32;;;;;;;35.70;26.20;;;9.50;1.00;;;;;;5093826;28;20419;-68
2021/04/21 05:37:23;;;;;;;37.43;27.17;;;9.50;1.00;;;;;;5093599;28;20410;-69
2021/04/21 05:40:10;;;;;;;35.87;26.93;;;9.60;3.90;;;;;;5093578;28;20792;-68
2021/04/21 05:43:14;;;;;;;37.83;26.80;;;9.70;99.90;;;;;;5094288;28;20930;-69
2021/04/21 05:46:11;;;;;;;36.50;27.27;;;9.50;99.90;;;;;;5093539;28;20405;-68
2021/04/21 05:48:49;;;;;;;46.23;28.97;;;9.50;99.90;;;;;;5093210;28;20753;-68
2021/04/21 05:51:40;;;;;;;39.47;29.40;;;9.30;99.90;;;;;;5093391;28;20433;-68
2021/04/21 05:54:38;;;;;;;41.20;30.60;;;9.30;1.00;;;;;;5093174;28;20438;-69
2021/04/21 05:57:35;;;;;;;50.60;31.90;;;9.50;99.90;;;;;;5093368;28;20378;-69
2021/04/21 06:00:33;;;;;;;39.00;29.43;;;9.60;99.90;;;;;;5093680;28;20398;-68
2021/04/21 06:03:00;;;;;;;43.60;32.73;;;9.40;99.90;;;;;;5093323;28;20385;-68
2021/04/21 06:05:26;;;;;;;46.13;31.50;;;9.60;99.90;;;;;;5093176;28;20398;-68
2021/04/21 06:07:52;;;;;;;47.20;33.67;;;9.40;1.00;;;;;;5093401;28;20428;-70
2021/04/21 06:10:18;;;;;;;47.17;34.87;;;9.30;99.90;;;;;;5092705;28;20210;-68
2021/04/21 06:12:45;;;;;;;54.77;32.17;;;9.40;99.90;;;;;;5092424;28;20537;-67
2021/04/21 06:15:20;;;;;;;43.73;33.80;;;9.40;99.90;;;;;;5093097;28;20425;-68
2021/04/21 06:17:46;;;;;;;48.03;33.47;;;9.20;99.90;;;;;;5092813;28;20390;-68
2021/04/21 06:20:27;;;;;;;46.97;32.93;;;9.20;1.00;;;;;;5092932;28;20412;-68
2021/04/21 06:23:12;;;;;;;45.83;35.13;;;9.30;1.00;;;;;;5092992;28;20190;-69
2021/04/21 06:25:43;;;;;;;49.67;33.83;;;9.50;99.90;;;;;;5093163;28;20382;-69
2021/04/21 06:28:11;;;;;;;48.60;34.97;;;9.60;99.90;;;;;;5092997;28;20485;-69
2021/04/21 06:30:37;;;;;;;45.57;34.00;;;9.60;99.90;;;;;;5092881;28;20523;-69
2021/04/21 06:33:04;;;;;;;51.23;32.87;;;9.60;99.90;;;;;;5092650;28;20413;-69
2021/04/21 06:35:30;;;;;;;49.40;33.17;;;9.30;99.90;;;;;;5092560;28;20435;-69
2021/04/21 06:37:57;;;;;;;49.40;32.67;;;9.20;1.00;;;;;;5092499;28;20447;-68
2021/04/21 06:40:28;;;;;;;46.60;33.73;;;9.10;1.00;;;;;;5092447;28;20652;-68
2021/04/21 06:42:54;;;;;;;44.83;33.63;;;9.40;1.00;;;;;;5092142;28;20534;-68
2021/04/21 06:45:29;;;;;;;43.27;32.53;;;9.40;1.00;;;;;;5092537;28;20401;-69
2021/04/21 06:47:55;;;;;;;48.03;33.87;;;9.50;99.90;;;;;;5092156;28;20462;-69
2021/04/21 06:50:33;;;;;;;46.80;32.73;;;9.30;99.90;;;;;;5092044;28;20490;-69
2021/04/21 06:53:04;;;;;;;46.13;33.00;;;9.30;99.90;;;;;;5092489;28;20381;-69
2021/04/21 06:55:32;;;;;;;47.27;33.10;;;9.40;99.90;;;;;;5092499;28;20855;-69
2021/04/21 06:57:58;;;;;;;48.03;36.13;;;9.40;99.90;;;;;;5091319;28;20418;-69
2021/04/21 07:00:26;;;;;;;47.20;33.13;;;9.60;99.90;;;;;;5092389;28;20402;-69
2021/04/21 07:02:57;;;;;;;46.23;33.77;;;9.60;99.90;;;;;;5092133;28;20179;-68
2021/04/21 07:05:31;;;;;;;45.00;32.60;;;9.50;99.90;;;;;;5092159;28;20811;-69
2021/04/21 07:08:17;;;;;;;45.60;34.43;;;9.40;99.90;;;;;;5093069;28;20404;-69
2021/04/21 07:10:46;;;;;;;43.97;33.27;;;9.20;99.90;;;;;;5092442;28;20455;-69
2021/04/21 07:13:20;;;;;;;50.53;33.93;;;9.50;99.90;;;;;;5092343;28;20425;-67
2021/04/21 07:15:47;;;;;;;50.73;37.63;;;9.80;99.90;;;;;;5092283;28;20458;-67
2021/04/21 07:18:24;;;;;;;52.47;34.33;;;10.00;99.90;;;;;;5090968;28;20408;-68
2021/04/21 07:20:50;;;;;;;53.60;35.10;;;10.00;99.90;;;;;;5091137;28;20889;-67
2021/04/21 07:23:22;;;;;;;45.77;34.70;;;10.00;99.90;;;;;;5092183;28;20425;-68
2021/04/21 07:25:49;;;;;;;46.07;34.10;;;9.60;99.90;;;;;;5094809;28;20488;-56
2021/04/21 07:28:16;;;;;;;44.37;32.77;;;9.70;99.90;;;;;;5095765;28;20397;-66
2021/04/21 07:30:42;;;;;;;53.03;35.77;;;9.90;99.90;;;;;;5094592;28;20453;-67
2021/04/21 07:33:09;;;;;;;49.10;36.07;;;9.80;99.90;;;;;;5094093;28;20429;-66
2021/04/21 07:35:35;;;;;;;46.23;34.07;;;10.00;99.90;;;;;;5095527;28;20402;-68
2021/04/21 07:38:01;;;;;;;55.30;38.07;;;10.10;99.90;;;;;;5095857;28;20393;-67
2021/04/21 07:40:33;;;;;;;47.30;35.50;;;10.20;99.90;;;;;;5095352;28;20727;-66
2021/04/21 07:43:04;;;;;;;49.80;35.30;;;10.20;99.90;;;;;;5095705;28;20821;-66
2021/04/21 07:45:58;;;;;;;49.73;36.93;;;10.30;99.90;;;;;;5095029;28;20413;-67
2021/04/21 07:48:33;;;;;;;53.63;37.40;;;10.30;95.80;;;;;;5092415;28;20430;-67
2021/04/21 07:51:21;;;;;;;48.27;35.10;;;10.40;64.20;;;;;;5095179;28;20494;-66
2021/04/21 07:54:04;;;;;;;56.83;38.67;;;10.20;5.70;;;;;;5093804;28;20573;-67
2021/04/21 07:56:48;;;;;;;45.30;34.37;;;10.10;2.00;;;;;;5094977;28;20397;-66
2021/04/21 07:59:21;;;;;;;48.70;33.73;;;10.10;25.60;;;;;;5095057;28;20394;-66
2021/04/21 08:01:48;;;;;;;47.87;37.00;;;10.20;16.20;;;;;;5093359;28;20398;-66
2021/04/21 08:04:24;;;;;;;44.73;33.07;;;10.30;3.40;;;;;;5094691;28;20421;-68
2021/04/21 08:06:55;;;;;;;48.47;37.37;;;10.40;1.00;;;;;;5093306;28;20516;-67
2021/04/21 08:09:22;;;;;;;46.37;35.27;;;10.20;1.00;;;;;;5095326;28;20433;-67
2021/04/21 08:12:06;;;;;;;49.53;34.30;;;10.40;1.00;;;;;;5094979;28;20453;-66
2021/04/21 08:14:48;;;;;;;57.13;38.00;;;10.60;1.00;;;;;;5094968;28;20432;-66
2021/04/21 08:17:15;;;;;;;50.40;36.27;;;10.50;1.00;;;;;;5094855;28;20396;-67
2021/04/21 08:19:45;;;;;;;50.00;36.00;;;10.30;1.00;;;;;;5094744;28;20433;-68
2021/04/21 08:22:12;;;;;;;48.20;36.80;;;10.40;1.00;;;;;;5093472;28;20421;-67
2021/04/21 08:24:41;;;;;;;55.00;37.80;;;10.40;1.00;;;;;;5094515;28;20434;-67
2021/04/21 08:27:08;;;;;;;52.47;36.20;;;10.40;1.00;;;;;;5094621;28;20436;-66
2021/04/21 08:29:34;;;;;;;48.90;37.33;;;10.60;1.00;;;;;;5094328;28;20543;-67
2021/04/21 08:31:59;;;;;;;52.87;38.57;;;10.80;1.00;;;;;;5093983;28;20446;-68
2021/04/21 08:34:25;;;;;;;53.17;38.63;;;10.90;1.00;;;;;;5093747;28;20430;-66
2021/04/21 08:36:50;;;;;;;52.70;36.60;;;10.70;1.00;;;;;;5094039;28;20248;-67
2021/04/21 08:39:16;;;;;;;42.87;32.23;;;11.00;1.00;;;;;;5094383;28;20247;-67
2021/04/21 08:41:43;;;;;;;56.53;37.93;;;11.30;1.00;;;;;;5094170;28;20690;-66
2021/04/21 08:44:10;;;;;;;50.33;37.43;;;11.80;1.00;;;;;;5093384;28;20640;-66
2021/04/21 08:46:37;;;;;;;49.10;35.17;;;11.40;1.00;;;;;;5093914;28;20930;-66
2021/04/21 08:49:05;;;;;;;52.93;39.00;;;11.20;1.00;;;;;;5093915;28;20795;-66
2021/04/21 08:51:32;;;;;;;53.70;38.23;;;11.40;1.00;;;;;;5092745;28;20859;-66
2021/04/21 08:54:03;;;;;;;44.97;34.87;;;11.50;1.00;;;;;;5094228;28;20417;-67
2021/04/21 08:56:31;;;;;;;50.30;37.17;;;11.70;1.00;;;;;;5093269;28;20914;-67
2021/04/21 08:58:58;;;;;;;50.03;37.13;;;11.80;1.00;;;;;;5094089;28;20410;-67
2021/04/21 09:01:23;;;;;;;55.60;39.93;;;12.00;1.00;;;;;;5094453;28;20409;-67
2021/04/21 09:03:50;;;;;;;58.17;41.17;;;12.40;1.00;;;;;;5094355;28;20930;-69
2021/04/21 09:06:18;;;;;;;53.90;37.43;;;12.30;1.00;;;;;;5094560;28;20175;-68
2021/04/21 09:08:45;;;;;;;52.60;39.57;;;12.40;1.00;;;;;;5094118;28;20929;-66
2021/04/21 09:11:12;;;;;;;53.53;40.60;;;12.70;1.00;;;;;;5094033;28;20494;-67
2021/04/21 09:13:37;;;;;;;62.30;41.73;;;12.80;1.00;;;;;;5094290;28;20421;-67
2021/04/21 09:16:03;;;;;;;51.60;40.60;;;13.20;1.00;;;;;;5093979;28;20402;-66
2021/04/21 09:18:31;;;;;;;56.60;39.67;;;13.30;1.00;;;;;;5093397;28;20586;-67
2021/04/21 09:20:57;;;;;;;55.67;39.37;;;13.60;1.00;;;;;;5094263;28;20688;-67
2021/04/21 09:23:23;;;;;;;53.00;41.63;;;13.50;1.00;;;;;;5094272;28;20491;-68
2021/04/21 09:25:54;;;;;;;52.30;40.17;;;13.80;1.00;;;;;;5093814;28;20401;-68
2021/04/21 09:28:22;;;;;;;60.80;43.80;;;13.90;1.00;;;;;;5093700;28;20585;-69
2021/04/21 09:30:59;;;;;;;61.07;43.77;;;14.00;1.00;;;;;;5093734;28;20482;-67
2021/04/21 09:33:29;;;;;;;52.83;42.00;;;14.50;1.00;;;;;;5093619;28;20419;-66
2021/04/21 09:35:55;;;;;;;56.30;41.20;;;14.80;1.00;;;;;;5093250;28;20395;-67
2021/04/21 09:38:24;;;;;;;66.33;46.53;;;14.90;1.00;;;;;;5093490;28;20422;-69
2021/04/21 09:40:55;;;;;;;50.43;40.17;;;15.20;1.00;;;;;;5093763;28;20406;-66
2021/04/21 09:43:26;;;;;;;50.30;39.93;;;14.90;1.00;;;;;;5093872;28;20435;-66
2021/04/21 09:45:54;;;;;;;50.03;40.07;;;15.50;1.00;;;;;;5093281;28;20390;-67
2021/04/21 09:48:35;;;;;;;52.67;39.93;;;15.50;1.00;;;;;;5092771;28;20743;-66
2021/04/21 09:51:02;;;;;;;49.50;40.60;;;15.60;1.00;;;;;;5093340;28;20437;-67
2021/04/21 09:53:41;;;;;;;54.30;40.97;;;15.90;1.00;;;;;;5092977;28;20422;-67
2021/04/21 09:56:11;;;;;;;55.50;41.00;;;15.90;1.00;;;;;;5093129;28;20394;-67
2021/04/21 09:58:40;;;;;;;48.90;39.40;;;15.60;1.00;;;;;;5093266;28;20398;-66
2021/04/21 10:01:37;;;;;;;48.27;39.30;;;15.80;1.00;;;;;;5091427;28;20923;-67
2021/04/21 10:04:13;;;;;;;46.30;38.17;;;16.10;1.00;;;;;;5092944;28;20422;-66
2021/04/21 10:06:50;;;;;;;48.00;37.80;;;15.50;1.00;;;;;;5093044;28;20398;-67
2021/04/21 10:09:32;;;;;;;60.73;40.80;;;15.50;1.00;;;;;;5092967;28;20531;-67
2021/04/21 10:12:32;;;;;;;42.27;34.70;;;15.60;1.00;;;;;;5093181;28;20870;-66
2021/04/21 10:15:01;;;;;;;48.90;35.57;;;15.70;1.00;;;;;;5093084;28;20464;-67
2021/04/21 10:17:33;;;;;;;53.23;37.20;;;15.80;1.00;;;;;;5091526;28;20414;-67
2021/04/21 10:19:59;;;;;;;56.07;40.30;;;15.60;1.00;;;;;;5093162;28;20506;-68
2021/04/21 10:22:26;;;;;;;45.87;37.83;;;15.80;1.00;;;;;;5092964;28;20492;-67
2021/04/21 10:24:53;;;;;;;50.67;38.57;;;16.20;1.00;;;;;;5092773;28;21034;-66
2021/04/21 10:27:19;;;;;;;53.23;39.77;;;16.50;1.00;;;;;;5092628;28;20438;-67
2021/04/21 10:29:45;;;;;;;49.70;40.00;;;16.40;1.00;;;;;;5092741;28;20541;-67
2021/04/21 10:32:15;;;;;;;48.47;38.80;;;16.20;1.00;;;;;;5092424;28;20446;-67
2021/04/21 10:34:43;;;;;;;48.30;38.70;;;16.40;1.00;;;;;;5092728;28;20486;-67
2021/04/21 10:37:10;;;;;;;54.70;40.40;;;16.70;1.00;;;;;;5092360;28;20418;-67
2021/04/21 10:39:37;;;;;;;48.80;38.17;;;16.80;1.00;;;;;;5092257;28;20401;-67
2021/04/21 10:42:05;;;;;;;46.47;37.70;;;16.00;1.00;;;;;;5092510;28;20443;-68
2021/04/21 10:44:31;;;;;;;54.13;38.70;;;16.50;1.00;;;;;;5092605;28;20426;-68
2021/04/21 10:46:57;;;;;;;54.70;39.77;;;17.00;1.00;;;;;;5092331;28;20478;-66
2021/04/21 10:49:36;;;;;;;57.20;42.07;;;16.90;1.00;;;;;;5090923;28;20409;-68
2021/04/21 10:52:13;;;;;;;49.87;38.80;;;17.40;1.00;;;;;;5092168;28;20450;-67
2021/04/21 10:54:39;;;;;;;52.87;39.37;;;16.70;1.00;;;;;;5092406;28;20937;-67
2021/04/21 10:57:22;;;;;;;52.10;39.40;;;17.00;1.00;;;;;;5092443;28;20512;-68
2021/04/21 11:00:09;;;;;;;54.33;41.60;;;17.30;1.00;;;;;;5093938;28;20534;-67
2021/04/21 11:02:44;;;;;;;46.00;38.17;;;17.30;1.00;;;;;;5095222;28;20431;-67
2021/04/21 11:05:10;;;;;;;50.30;37.33;;;17.50;1.00;;;;;;5096430;28;20813;-67
2021/04/21 11:07:40;;;;;;;44.40;35.30;;;18.10;1.00;;;;;;5097081;28;20526;-67
2021/04/21 11:10:29;;;;;;;47.73;34.40;;;17.70;1.00;;;;;;5096175;28;20799;-67
2021/04/21 11:12:55;;;;;;;53.03;37.50;;;17.10;1.00;;;;;;5095927;28;20414;-67
2021/04/21 11:15:54;;;;;;;46.87;34.73;;;17.70;1.00;;;;;;5096001;28;20403;-67
2021/04/21 11:18:31;;;;;;;44.73;35.50;;;17.70;1.00;;;;;;5051607;28;20173;-66
2021/04/21 11:21:09;;;;;;;42.50;35.17;;;17.80;1.00;;;;;;5095987;28;20493;-67
2021/04/21 11:24:05;;;;;;;44.33;35.30;;;18.50;1.00;;;;;;5094750;28;20793;-66
2021/04/21 11:26:36;;;;;;;41.17;33.10;;;18.40;1.00;;;;;;5095759;28;20386;-67
2021/04/21 11:29:14;;;;;;;39.30;32.90;;;18.70;1.00;;;;;;5094550;28;20447;-67
2021/04/21 11:31:48;;;;;;;41.07;33.90;;;18.50;1.00;;;;;;5096027;28;20445;-67
2021/04/21 11:36:52;;;;;;;39.90;32.77;;;20.00;1.00;;;;;;5095732;28;20389;-67
2021/04/21 11:39:40;;;;;;;38.07;33.63;;;20.10;1.00;;;;;;5095545;28;20165;-67
2021/04/21 11:42:14;;;;;;;41.80;33.57;;;20.10;1.00;;;;;;5096350;28;20429;-67
2021/04/21 11:44:51;;;;;;;39.20;34.00;;;20.20;99.90;;;;;;5095405;28;20421;-67
2021/04/21 11:47:29;;;;;;;38.27;33.10;;;19.40;99.90;;;;;;5095584;28;20756;-67
2021/04/21 11:50:02;;;;;;;38.07;31.10;;;19.40;99.90;;;;;;5095458;28;20398;-67
2021/04/21 11:52:45;;;;;;;36.67;29.70;;;19.90;99.90;;;;;;5095522;28;20507;-69
2021/04/21 11:55:36;;;;;;;40.07;32.47;;;19.70;99.90;;;;;;5095882;28;20463;-67
2021/04/21 11:58:05;;;;;;;34.87;29.20;;;20.20;99.90;;;;;;5095654;28;20384;-68
2021/04/21 12:00:32;;;;;;;34.60;28.87;;;19.60;99.90;;;;;;5095762;28;20829;-68
2021/04/21 12:03:00;;;;;;;34.93;29.77;;;19.50;99.90;;;;;;5095619;28;20775;-68
2021/04/21 12:05:29;;;;;;;36.30;32.13;;;20.40;99.90;;;;;;5094936;28;20545;-68
2021/04/21 12:07:56;;;;;;;35.00;30.63;;;20.50;99.90;;;;;;5094243;28;20815;-67
2021/04/21 12:10:22;;;;;;;33.93;28.70;;;19.90;99.90;;;;;;5095001;28;20420;-67
2021/04/21 12:12:48;;;;;;;35.43;30.67;;;19.80;99.90;;;;;;5094618;28;20398;-68
2021/04/21 12:15:15;;;;;;;33.60;29.23;;;20.30;99.90;;;;;;5095255;28;20934;-68
2021/04/21 12:17:52;;;;;;;34.73;28.13;;;20.70;99.90;;;;;;5093928;28;20619;-67
2021/04/21 12:20:26;;;;;;;27.43;24.50;;;21.30;99.90;;;;;;5095345;28;20418;-67
2021/04/21 12:22:52;;;;;;;23.37;19.27;;;19.90;99.90;;;;;;5095233;28;20379;-67
2021/04/21 12:25:26;;;;;;;21.27;18.43;;;19.80;99.90;;;;;;5095240;28;20489;-67
2021/04/21 12:27:54;;;;;;;23.20;18.27;;;19.90;99.90;;;;;;5095383;28;20749;-68
2021/04/21 12:30:23;;;;;;;24.33;16.80;;;19.90;99.90;;;;;;5095088;28;20401;-66
2021/04/21 12:32:49;;;;;;;23.33;15.43;;;19.80;99.90;;;;;;5094853;28;20423;-68
2021/04/21 12:35:15;;;;;;;19.80;17.70;;;19.70;99.90;;;;;;5095030;28;20410;-67
2021/04/21 12:37:42;;;;;;;25.33;17.40;;;19.60;99.90;;;;;;5093413;28;20190;-67
2021/04/21 12:40:22;;;;;;;18.23;16.43;;;19.00;99.90;;;;;;5094438;28;20406;-68
2021/04/21 12:42:51;;;;;;;19.37;16.53;;;18.90;99.90;;;;;;5094159;28;20383;-67
2021/04/21 12:45:28;;;;;;;20.70;15.80;;;19.40;99.90;;;;;;5092946;28;20734;-66
2021/04/21 12:47:54;;;;;;;23.90;18.13;;;18.90;99.90;;;;;;5094704;28;20410;-67
2021/04/21 12:50:30;;;;;;;19.73;17.50;;;19.00;99.90;;;;;;5093213;28;20486;-68
2021/04/21 12:53:12;;;;;;;24.80;18.07;;;18.90;99.90;;;;;;5094608;28;20389;-68
2021/04/21 12:55:39;;;;;;;25.90;18.37;;;18.40;99.90;;;;;;5094796;28;20566;-67
2021/04/21 12:58:05;;;;;;;22.33;20.00;;;18.30;99.90;;;;;;5093012;28;20405;-68
2021/04/21 13:00:30;;;;;;;24.43;18.00;;;18.20;99.90;;;;;;5094605;28;20494;-68
2021/04/21 13:02:56;;;;;;;22.53;19.47;;;18.60;99.90;;;;;;5093865;28;20662;-68
2021/04/21 13:05:45;;;;;;;33.40;19.30;;;18.30;99.90;;;;;;5093881;28;20292;-67
2021/04/21 13:08:37;;;;;;;22.70;20.20;;;18.60;99.90;;;;;;5093925;28;20629;-68
2021/04/21 13:11:03;;;;;;;20.57;18.40;;;19.10;99.90;;;;;;5090926;28;20821;-68